Search for airport 
image banner adimage banner adimage banner ad
image banner ad

KBIH - Bishop

Located in Bishop, United States

ICAO - BIH, IATA - BIH

Data provided by Airmate  

General information

Coordinates: N37°22'23" W118°21'49"
Elevation is 4124 feet MSL.
Magnetic variation is 15° East
View others Airports in California

Operational data

Special qualification required
Current time UTC:
Current local time:
Weather
METAR: KBIH 221356Z AUTO 00000KT 10SM CLR 15/M01 A3000 RMK AO2 SLP105 T01501011
TAF: KBIH 221133Z 2212/2312 VRB05KT P6SM SKC FM221900 18014G22KT P6SM FEW250 FM222200 24015G25KT P6SM SCT250 FM230400 35007KT P6SM FEW250
View NOTAMs / SUP AIP / TFR affecting this airport [VIEW]
Communications frequencies: [VIEW]

Runways:

RWY identifierQFULength (ft)Width (ft)SurfaceLDA (ft)
12135°7498100ASPH
30315°7498100ASPH
0890°5567100ASPH
26270°5567100ASPH

Airport contact information

Address: Bishop United States

Satellite view of KBIH